createdAt,value
2018-08-30T00:02:14.168Z,18.28
2018-08-30T00:04:44.404Z,18.30
2018-08-30T00:07:14.234Z,18.30
2018-08-30T00:09:44.433Z,18.21
2018-08-30T00:12:12.914Z,18.19
2018-08-30T00:14:42.124Z,18.18
2018-08-30T00:17:10.597Z,18.23
2018-08-30T00:19:39.857Z,18.30
2018-08-30T00:22:08.598Z,18.23
2018-08-30T00:24:37.760Z,18.30
2018-08-30T00:27:08.692Z,18.22
2018-08-30T00:29:38.361Z,18.28
2018-08-30T00:32:07.384Z,18.12
2018-08-30T00:34:36.211Z,18.03
2018-08-30T00:37:05.514Z,18.13
2018-08-30T00:39:34.212Z,17.93
2018-08-30T00:42:02.933Z,17.85
2018-08-30T00:44:31.394Z,17.85
2018-08-30T00:47:00.436Z,17.87
2018-08-30T00:49:29.685Z,17.93
2018-08-30T00:51:58.875Z,17.89
2018-08-30T00:54:28.145Z,17.89
2018-08-30T00:56:56.632Z,17.85
2018-08-30T00:59:25.426Z,17.88
2018-08-30T01:01:54.885Z,17.80
2018-08-30T01:04:23.365Z,17.80
2018-08-30T01:06:52.206Z,17.63
2018-08-30T01:09:21.149Z,17.63
2018-08-30T01:11:50.949Z,17.46
2018-08-30T01:14:20.042Z,17.39
2018-08-30T01:16:48.905Z,17.39
2018-08-30T01:19:18.264Z,17.38
2018-08-30T01:21:47.053Z,17.31
2018-08-30T01:24:15.557Z,17.11
2018-08-30T01:26:44.555Z,17.12
2018-08-30T01:29:13.251Z,17.19
2018-08-30T01:31:42.154Z,17.09
2018-08-30T01:34:13.173Z,17.00
2018-08-30T01:36:44.331Z,16.85
2018-08-30T01:39:13.490Z,16.77
2018-08-30T01:41:44.074Z,16.74
2018-08-30T01:44:13.772Z,16.70
2018-08-30T01:46:43.041Z,16.65
2018-08-30T01:49:11.988Z,16.67
2018-08-30T01:51:41.257Z,16.70
2018-08-30T01:54:09.792Z,16.55
2018-08-30T01:56:38.278Z,16.56
2018-08-30T01:59:07.191Z,16.58
2018-08-30T02:01:36.357Z,16.57
2018-08-30T02:04:05.315Z,16.55
2018-08-30T02:06:34.103Z,16.57
2018-08-30T02:09:02.653Z,16.67
2018-08-30T02:11:31.105Z,16.61
2018-08-30T02:13:59.974Z,16.58
2018-08-30T02:16:28.733Z,16.66
2018-08-30T02:18:57.204Z,16.58
2018-08-30T02:21:25.697Z,16.48
2018-08-30T02:23:54.201Z,16.37
2018-08-30T02:26:22.909Z,16.30
2018-08-30T02:28:51.904Z,16.29
2018-08-30T02:31:20.329Z,16.21
2018-08-30T02:33:48.781Z,16.01
2018-08-30T02:36:17.221Z,16.14
2018-08-30T02:38:46.270Z,16.15
2018-08-30T02:41:14.720Z,16.03
2018-08-30T02:43:43.166Z,16.12
2018-08-30T02:46:12.188Z,16.03
2018-08-30T02:48:41.144Z,15.95
2018-08-30T02:51:10.638Z,15.94
2018-08-30T02:53:39.861Z,16.00
2018-08-30T02:56:09.035Z,16.05
2018-08-30T02:58:38.027Z,16.02
2018-08-30T03:01:06.852Z,16.10
2018-08-30T03:03:36.239Z,16.06
2018-08-30T03:06:04.753Z,16.13
2018-08-30T03:08:33.225Z,16.08
2018-08-30T03:11:02.207Z,16.07
2018-08-30T03:13:30.701Z,16.12
2018-08-30T03:15:59.664Z,16.14
2018-08-30T03:18:28.863Z,16.16
2018-08-30T03:20:57.703Z,16.18
2018-08-30T03:23:26.389Z,16.11
2018-08-30T03:25:54.950Z,16.14
2018-08-30T03:28:23.393Z,16.13
2018-08-30T03:30:52.392Z,16.14
2018-08-30T03:33:20.987Z,16.05
2018-08-30T03:35:50.228Z,16.16
2018-08-30T03:38:18.704Z,16.07
2018-08-30T03:40:47.752Z,16.03
2018-08-30T03:43:16.205Z,16.09
2018-08-30T03:45:45.060Z,16.10
2018-08-30T03:48:13.552Z,16.12
2018-08-30T03:50:42.251Z,16.15
2018-08-30T03:53:10.729Z,16.13
2018-08-30T03:55:39.535Z,16.15
2018-08-30T03:58:08.196Z,16.02
2018-08-30T04:00:36.914Z,16.12
2018-08-30T04:03:05.630Z,15.96
2018-08-30T04:05:35.036Z,16.07
2018-08-30T04:08:03.538Z,16.12
2018-08-30T04:10:32.022Z,16.09
2018-08-30T04:13:00.876Z,16.09
2018-08-30T04:15:29.335Z,16.18
2018-08-30T04:17:58.814Z,16.08
2018-08-30T04:20:27.505Z,16.13
2018-08-30T04:22:56.417Z,16.05
2018-08-30T04:25:25.794Z,16.07
2018-08-30T04:27:54.261Z,16.10
2018-08-30T04:30:23.157Z,16.07
2018-08-30T04:32:51.696Z,16.11
2018-08-30T04:35:20.172Z,16.01
2018-08-30T04:37:48.690Z,16.02
2018-08-30T04:40:17.161Z,16.06
2018-08-30T04:42:45.774Z,15.97
2018-08-30T04:45:14.363Z,15.96
2018-08-30T04:47:43.219Z,15.96
2018-08-30T04:50:12.676Z,15.96
2018-08-30T04:52:41.140Z,16.00
2018-08-30T04:55:10.017Z,15.98
2018-08-30T04:57:38.508Z,15.94
2018-08-30T05:00:07.064Z,15.91
2018-08-30T05:02:35.523Z,15.96
2018-08-30T05:05:04.374Z,16.01
2018-08-30T05:07:33.276Z,15.91
2018-08-30T05:10:02.223Z,15.88
2018-08-30T05:12:30.961Z,15.92
2018-08-30T05:14:59.649Z,15.90
2018-08-30T05:17:28.391Z,15.92
2018-08-30T05:19:56.944Z,15.94
2018-08-30T05:22:25.685Z,15.96
2018-08-30T05:24:54.357Z,15.97
2018-08-30T05:27:23.049Z,15.96
2018-08-30T05:29:51.782Z,15.94
2018-08-30T05:32:20.976Z,15.97
2018-08-30T05:34:49.407Z,15.90
2018-08-30T05:37:18.542Z,15.84
2018-08-30T05:39:47.708Z,15.93
2018-08-30T05:42:16.187Z,15.99
2018-08-30T05:44:44.668Z,16.07
2018-08-30T05:47:13.456Z,16.00
2018-08-30T05:49:41.902Z,16.01
2018-08-30T05:52:11.013Z,15.95
2018-08-30T05:54:39.809Z,16.01
2018-08-30T05:57:08.808Z,15.94
2018-08-30T05:59:37.257Z,15.94
2018-08-30T06:02:05.699Z,15.93
2018-08-30T06:04:34.184Z,16.01
2018-08-30T06:07:02.654Z,16.03
2018-08-30T06:09:31.132Z,16.07
2018-08-30T06:12:00.742Z,16.09
2018-08-30T06:14:29.542Z,16.00
2018-08-30T06:16:58.616Z,16.13
2018-08-30T06:19:27.748Z,16.05
2018-08-30T06:21:56.608Z,16.16
2018-08-30T06:24:25.098Z,16.18
2018-08-30T06:26:53.621Z,16.21
2018-08-30T06:29:22.973Z,16.19
2018-08-30T06:31:51.377Z,16.23
2018-08-30T06:34:20.184Z,16.31
2018-08-30T06:36:48.645Z,16.31
2018-08-30T06:39:17.905Z,16.33
2018-08-30T06:41:46.392Z,16.44
2018-08-30T06:44:15.349Z,16.52
2018-08-30T06:46:44.659Z,16.51
2018-08-30T06:49:13.529Z,16.54
2018-08-30T06:51:42.467Z,16.54
2018-08-30T06:54:11.254Z,16.50
2018-08-30T06:56:39.762Z,16.42
2018-08-30T06:59:08.600Z,16.48
2018-08-30T07:01:37.510Z,16.59
2018-08-30T07:04:07.206Z,16.56
2018-08-30T07:06:35.657Z,16.63
2018-08-30T07:09:07.299Z,16.71
2018-08-30T07:11:35.747Z,16.82
2018-08-30T07:14:04.517Z,16.77
2018-08-30T07:16:32.976Z,16.72
2018-08-30T07:19:02.712Z,16.76
2018-08-30T07:21:31.688Z,16.82
2018-08-30T07:24:00.203Z,16.88
2018-08-30T07:26:28.676Z,16.88
2018-08-30T07:28:57.402Z,16.88
2018-08-30T07:31:25.870Z,16.90
2018-08-30T07:33:54.736Z,16.87
2018-08-30T07:36:24.516Z,16.91
2018-08-30T07:38:53.029Z,16.95
2018-08-30T07:41:22.052Z,16.97
2018-08-30T07:43:51.075Z,17.01
2018-08-30T07:46:19.894Z,16.93
2018-08-30T07:48:48.761Z,16.90
2018-08-30T07:51:17.255Z,16.94
2018-08-30T07:53:46.082Z,16.71
2018-08-30T07:56:14.764Z,16.76
2018-08-30T07:58:43.249Z,16.72
2018-08-30T08:01:12.389Z,16.75
2018-08-30T08:03:41.139Z,16.80
2018-08-30T08:06:09.690Z,16.80
2018-08-30T08:08:38.143Z,16.86
2018-08-30T08:11:07.133Z,16.90
2018-08-30T08:13:35.635Z,16.86
2018-08-30T08:16:04.108Z,16.99
2018-08-30T08:18:33.241Z,17.07
2018-08-30T08:21:01.779Z,16.98
2018-08-30T08:23:30.410Z,17.05
2018-08-30T08:26:01.144Z,17.03
2018-08-30T08:28:30.450Z,17.12
2018-08-30T08:30:59.323Z,17.28
2018-08-30T08:33:28.813Z,17.32
2018-08-30T08:35:57.336Z,17.46
2018-08-30T08:38:26.210Z,17.71
2018-08-30T08:40:55.667Z,17.67
2018-08-30T08:43:24.914Z,17.68
2018-08-30T08:45:54.991Z,17.73
2018-08-30T08:48:23.488Z,17.55
2018-08-30T08:50:52.345Z,17.47
2018-08-30T08:53:21.103Z,17.43
2018-08-30T08:55:49.596Z,17.57
2018-08-30T08:58:18.064Z,17.69
2018-08-30T09:00:47.604Z,17.71
2018-08-30T09:03:16.333Z,17.77
2018-08-30T09:05:45.619Z,17.94
2018-08-30T09:08:15.351Z,17.97
2018-08-30T09:10:44.501Z,18.13
2018-08-30T09:13:13.356Z,18.16
2018-08-30T09:15:41.832Z,18.32
2018-08-30T09:18:10.295Z,18.22
2018-08-30T09:20:39.145Z,18.31
2018-08-30T09:23:07.670Z,18.56
2018-08-30T09:25:36.465Z,18.25
2018-08-30T09:28:05.378Z,18.45
2018-08-30T09:30:33.893Z,18.58
2018-08-30T09:33:02.745Z,18.53
2018-08-30T09:35:31.269Z,18.63
2018-08-30T09:38:00.172Z,18.86
2018-08-30T09:40:31.151Z,18.88
2018-08-30T09:43:00.096Z,18.82
2018-08-30T09:45:29.103Z,18.80
2018-08-30T09:47:58.147Z,18.95
2018-08-30T09:50:27.599Z,19.10
2018-08-30T09:52:56.053Z,19.62
2018-08-30T09:55:24.868Z,19.54
2018-08-30T09:57:53.669Z,19.50
2018-08-30T10:00:27.778Z,19.43
2018-08-30T10:02:56.253Z,19.44
2018-08-30T10:05:25.259Z,19.17
2018-08-30T10:07:54.557Z,18.79
2018-08-30T10:10:23.331Z,18.65
2018-08-30T10:12:52.250Z,18.43
2018-08-30T10:15:21.165Z,18.21
2018-08-30T10:17:49.735Z,18.34
2018-08-30T10:20:19.333Z,18.48
2018-08-30T10:22:48.200Z,18.53
2018-08-30T10:25:16.732Z,18.47
2018-08-30T10:27:45.539Z,18.53
2018-08-30T10:30:14.488Z,18.69
2018-08-30T10:32:43.256Z,18.71
2018-08-30T10:35:11.748Z,18.97
2018-08-30T10:37:40.504Z,19.11
2018-08-30T10:40:09.387Z,18.96
2018-08-30T10:42:38.552Z,18.93
2018-08-30T10:45:07.307Z,19.03
2018-08-30T10:47:36.154Z,19.17
2018-08-30T10:50:06.404Z,19.31
2018-08-30T10:52:35.500Z,19.33
2018-08-30T10:55:04.029Z,19.50
2018-08-30T10:57:32.521Z,19.53
2018-08-30T11:00:01.432Z,19.47
2018-08-30T11:02:30.270Z,19.20
2018-08-30T11:04:59.652Z,19.13
2018-08-30T11:07:28.118Z,19.44
2018-08-30T11:09:56.969Z,19.52
2018-08-30T11:12:25.783Z,19.72
2018-08-30T11:14:55.399Z,19.93
2018-08-30T11:17:23.907Z,20.33
2018-08-30T11:19:52.696Z,20.26
2018-08-30T11:22:21.527Z,20.23
2018-08-30T11:24:50.241Z,20.51
2018-08-30T11:27:19.346Z,20.62
2018-08-30T11:29:48.263Z,20.68
2018-08-30T11:32:17.128Z,21.05
2018-08-30T11:34:46.153Z,21.65
2018-08-30T11:37:16.054Z,21.78
2018-08-30T11:39:44.856Z,21.57
2018-08-30T11:42:13.776Z,21.64
2018-08-30T11:44:42.740Z,22.22
2018-08-30T11:47:11.242Z,21.96
2018-08-30T11:49:39.714Z,21.74
2018-08-30T11:52:08.424Z,21.21
2018-08-30T11:54:36.871Z,21.19
2018-08-30T11:57:05.404Z,20.94
2018-08-30T11:59:34.037Z,20.81
2018-08-30T12:02:02.571Z,20.67
2018-08-30T12:04:31.531Z,20.33
2018-08-30T12:07:01.399Z,19.87
2018-08-30T12:09:32.892Z,19.67
2018-08-30T12:12:02.156Z,19.61
2018-08-30T12:14:30.612Z,19.58
2018-08-30T12:16:59.073Z,19.59
2018-08-30T12:19:31.248Z,19.60
2018-08-30T12:21:59.726Z,19.73
2018-08-30T12:24:28.425Z,19.83
2018-08-30T12:26:56.984Z,20.16
2018-08-30T12:29:25.726Z,20.36
2018-08-30T12:31:54.213Z,20.41
2018-08-30T12:34:22.738Z,21.16
2018-08-30T12:36:51.206Z,22.05
2018-08-30T12:39:19.667Z,22.38
2018-08-30T12:41:48.162Z,23.32
2018-08-30T12:44:16.647Z,23.37
2018-08-30T12:46:45.294Z,23.52
2018-08-30T12:49:13.993Z,23.31
2018-08-30T12:51:43.036Z,22.50
2018-08-30T12:54:11.429Z,22.15
2018-08-30T12:56:39.929Z,21.67
2018-08-30T12:59:14.045Z,21.03
2018-08-30T13:01:42.931Z,20.83
2018-08-30T13:04:11.809Z,21.12
2018-08-30T13:06:50.496Z,20.62
2018-08-30T13:09:19.664Z,20.45
2018-08-30T13:11:48.625Z,20.50
2018-08-30T13:14:17.319Z,20.61
2018-08-30T13:16:45.805Z,20.73
2018-08-30T13:19:15.037Z,20.65
2018-08-30T13:21:44.014Z,20.88
2018-08-30T13:24:12.677Z,20.91
2018-08-30T13:26:41.602Z,20.99
2018-08-30T13:29:10.568Z,20.90
2018-08-30T13:31:38.918Z,20.51
2018-08-30T13:34:07.746Z,20.43
2018-08-30T13:36:36.548Z,20.44
2018-08-30T13:39:06.953Z,20.32
2018-08-30T13:41:35.428Z,20.55
2018-08-30T13:44:04.546Z,20.82
2018-08-30T13:46:32.923Z,20.90
2018-08-30T13:49:01.420Z,21.69
2018-08-30T13:51:30.416Z,22.09
2018-08-30T13:53:59.533Z,22.42
2018-08-30T13:56:28.467Z,22.55
2018-08-30T13:58:57.197Z,22.67
2018-08-30T14:01:25.663Z,22.52
2018-08-30T14:03:54.269Z,22.31
2018-08-30T14:06:22.823Z,22.41
2018-08-30T14:08:53.163Z,22.54
2018-08-30T14:11:21.763Z,22.39
2018-08-30T14:13:50.271Z,22.72
2018-08-30T14:16:18.792Z,23.22
2018-08-30T14:18:49.158Z,23.62
2018-08-30T14:21:18.525Z,23.14
2018-08-30T14:23:47.039Z,22.43
2018-08-30T14:26:15.502Z,22.41
2018-08-30T14:28:44.582Z,22.16
2018-08-30T14:31:14.276Z,22.16
2018-08-30T14:33:42.780Z,22.68
2018-08-30T14:36:11.240Z,22.84
2018-08-30T14:38:40.070Z,22.40
2018-08-30T14:41:08.672Z,22.27
2018-08-30T14:43:38.859Z,21.86
2018-08-30T14:46:07.722Z,21.55
2018-08-30T14:48:36.403Z,21.79
2018-08-30T14:51:05.726Z,21.71
2018-08-30T14:53:34.462Z,21.74
2018-08-30T14:56:03.006Z,21.79
2018-08-30T14:58:31.730Z,22.00
2018-08-30T15:01:00.171Z,22.08
2018-08-30T15:03:29.397Z,22.15
2018-08-30T15:05:58.146Z,22.20
2018-08-30T15:08:26.847Z,21.92
2018-08-30T15:10:55.673Z,21.87
2018-08-30T15:13:24.162Z,21.65
2018-08-30T15:15:52.629Z,21.65
2018-08-30T15:18:23.433Z,21.47
2018-08-30T15:20:52.158Z,21.43
2018-08-30T15:23:21.207Z,21.49
2018-08-30T15:25:49.769Z,21.48
2018-08-30T15:28:18.491Z,21.70
2018-08-30T15:30:47.670Z,22.18
2018-08-30T15:33:16.184Z,22.31
2018-08-30T15:35:44.654Z,22.48
2018-08-30T15:38:13.133Z,22.55
2018-08-30T15:40:41.815Z,22.43
2018-08-30T15:43:10.463Z,22.39
2018-08-30T15:45:39.701Z,22.40
2018-08-30T15:48:08.298Z,22.70
2018-08-30T15:50:36.923Z,22.74
2018-08-30T15:53:05.436Z,23.07
2018-08-30T15:55:34.423Z,23.33
2018-08-30T15:58:03.316Z,23.58
2018-08-30T16:00:32.358Z,23.34
2018-08-30T16:03:01.223Z,23.07
2018-08-30T16:05:29.768Z,23.00
2018-08-30T16:07:58.822Z,22.93
2018-08-30T16:10:27.281Z,23.04
2018-08-30T16:12:56.325Z,23.09
2018-08-30T16:15:24.806Z,23.09
2018-08-30T16:17:53.283Z,23.28
2018-08-30T16:20:21.823Z,23.37
2018-08-30T16:23:09.351Z,23.36
2018-08-30T16:25:38.022Z,23.41
2018-08-30T16:28:07.511Z,23.46
2018-08-30T16:30:37.300Z,23.19
2018-08-30T16:33:05.710Z,23.28
2018-08-30T16:35:35.095Z,23.12
2018-08-30T16:38:04.062Z,23.23
2018-08-30T16:40:32.542Z,23.45
2018-08-30T16:43:01.317Z,23.55
2018-08-30T16:45:29.810Z,23.41
2018-08-30T16:47:58.343Z,23.52
2018-08-30T16:50:27.228Z,23.58
2018-08-30T16:52:55.728Z,24.02
2018-08-30T16:55:25.129Z,23.75
2018-08-30T16:57:53.596Z,23.95
2018-08-30T17:00:22.104Z,23.81
2018-08-30T17:02:51.021Z,23.32
2018-08-30T17:05:19.532Z,23.01
2018-08-30T17:07:49.799Z,22.70
2018-08-30T17:10:18.882Z,22.20
2018-08-30T17:12:47.484Z,22.01
2018-08-30T17:15:16.335Z,21.76
2018-08-30T17:17:45.241Z,21.76
2018-08-30T17:20:24.140Z,21.45
2018-08-30T17:22:52.962Z,21.52
2018-08-30T17:25:21.501Z,21.40
2018-08-30T17:27:50.516Z,21.24
2018-08-30T17:30:19.117Z,21.08
2018-08-30T17:32:47.571Z,20.73
2018-08-30T17:35:16.536Z,20.84
2018-08-30T17:37:45.314Z,20.66
2018-08-30T17:40:14.141Z,20.53
2018-08-30T17:42:42.694Z,20.33
2018-08-30T17:45:11.509Z,20.17
2018-08-30T17:47:41.117Z,19.99
2018-08-30T17:50:10.155Z,19.99
2018-08-30T17:52:39.506Z,19.95
2018-08-30T17:55:08.377Z,19.80
2018-08-30T17:57:36.838Z,19.77
2018-08-30T18:00:06.671Z,19.63
2018-08-30T18:02:35.572Z,19.50
2018-08-30T18:05:05.315Z,19.26
2018-08-30T18:07:34.083Z,19.12
2018-08-30T18:10:03.492Z,18.99
2018-08-30T18:12:35.815Z,18.98
2018-08-30T18:15:04.633Z,18.83
2018-08-30T18:17:33.121Z,18.73
2018-08-30T18:20:02.078Z,18.60
2018-08-30T18:22:30.798Z,18.58
2018-08-30T18:24:59.699Z,18.56
2018-08-30T18:27:29.258Z,18.39
2018-08-30T18:29:58.086Z,18.36
2018-08-30T18:32:26.564Z,18.39
2018-08-30T18:34:55.659Z,18.33
2018-08-30T18:37:24.099Z,18.21
2018-08-30T18:39:53.964Z,18.16
2018-08-30T18:42:22.790Z,18.09
2018-08-30T18:44:52.007Z,17.95
2018-08-30T18:47:21.303Z,17.89
2018-08-30T18:49:51.249Z,17.76
2018-08-30T18:52:20.037Z,17.70
2018-08-30T18:54:48.849Z,17.66
2018-08-30T18:57:17.267Z,17.49
2018-08-30T18:59:46.661Z,17.62
2018-08-30T19:02:15.156Z,17.58
2018-08-30T19:04:45.508Z,17.60
2018-08-30T19:07:13.954Z,17.57
2018-08-30T19:09:42.517Z,17.50
2018-08-30T19:12:11.990Z,17.46
2018-08-30T19:14:40.736Z,17.38
2018-08-30T19:17:14.827Z,17.36
2018-08-30T19:19:44.261Z,17.35
2018-08-30T19:22:13.097Z,17.24
2018-08-30T19:24:46.924Z,17.29
2018-08-30T19:27:16.163Z,17.16
2018-08-30T19:29:50.577Z,17.04
2018-08-30T19:32:25.535Z,17.04
2018-08-30T19:34:54.042Z,16.98
2018-08-30T19:37:23.111Z,16.99
2018-08-30T19:39:51.622Z,16.94
2018-08-30T19:42:21.732Z,16.82
2018-08-30T19:44:50.183Z,16.88
2018-08-30T19:47:19.007Z,16.83
2018-08-30T19:49:47.448Z,16.83
2018-08-30T19:52:16.741Z,16.80
2018-08-30T19:54:45.737Z,16.73
2018-08-30T19:57:14.132Z,16.76
2018-08-30T19:59:44.090Z,16.77
2018-08-30T20:02:13.046Z,16.77
2018-08-30T20:04:41.727Z,16.81
2018-08-30T20:07:10.253Z,16.86
2018-08-30T20:09:40.039Z,16.84
2018-08-30T20:12:08.734Z,16.81
2018-08-30T20:14:37.535Z,16.66
2018-08-30T20:17:06.276Z,16.59
2018-08-30T20:19:34.960Z,16.61
2018-08-30T20:22:06.256Z,16.45
2018-08-30T20:24:35.319Z,16.44
2018-08-30T20:27:03.804Z,16.41
2018-08-30T20:29:32.620Z,16.29
2018-08-30T20:32:02.982Z,16.09
2018-08-30T20:34:31.517Z,16.12
2018-08-30T20:37:00.790Z,16.14
2018-08-30T20:39:29.815Z,15.80
2018-08-30T20:41:58.463Z,15.82
2018-08-30T20:44:30.365Z,15.86
2018-08-30T20:46:58.852Z,15.88
2018-08-30T20:49:27.426Z,15.73
2018-08-30T20:51:55.916Z,15.72
2018-08-30T20:54:24.632Z,15.76
2018-08-30T20:56:57.466Z,15.73
2018-08-30T20:59:26.418Z,15.67
2018-08-30T21:01:55.268Z,15.67
2018-08-30T21:04:24.289Z,15.57
2018-08-30T21:06:56.465Z,15.62
2018-08-30T21:09:24.921Z,15.52
2018-08-30T21:11:53.493Z,15.47
2018-08-30T21:14:23.529Z,15.39
2018-08-30T21:16:52.990Z,15.28
2018-08-30T21:19:22.028Z,15.32
2018-08-30T21:21:51.744Z,15.12
2018-08-30T21:24:20.437Z,15.17
2018-08-30T21:26:49.258Z,15.24
2018-08-30T21:29:18.123Z,15.20
2018-08-30T21:31:46.603Z,15.09
2018-08-30T21:34:15.546Z,15.09
2018-08-30T21:36:44.342Z,15.11
2018-08-30T21:39:12.814Z,15.11
2018-08-30T21:41:42.425Z,14.95
2018-08-30T21:44:10.893Z,14.98
2018-08-30T21:46:39.574Z,14.93
2018-08-30T21:49:08.125Z,14.83
2018-08-30T21:51:38.304Z,14.89
2018-08-30T21:54:06.873Z,14.78
2018-08-30T21:56:35.346Z,14.73
2018-08-30T21:59:04.477Z,14.64
2018-08-30T22:01:34.332Z,14.68
2018-08-30T22:04:04.933Z,14.71
2018-08-30T22:06:33.399Z,14.83
2018-08-30T22:09:03.609Z,14.72
2018-08-30T22:11:32.472Z,14.72
2018-08-30T22:14:02.145Z,14.74
2018-08-30T22:16:31.167Z,14.62
2018-08-30T22:18:59.817Z,14.63
2018-08-30T22:21:29.757Z,14.65
2018-08-30T22:23:58.475Z,14.58
2018-08-30T22:26:26.971Z,14.63
2018-08-30T22:28:56.666Z,14.68
2018-08-30T22:31:25.909Z,14.60
2018-08-30T22:33:54.402Z,14.54
2018-08-30T22:36:23.546Z,14.55
2018-08-30T22:38:52.629Z,14.56
2018-08-30T22:41:22.090Z,14.60
2018-08-30T22:43:50.574Z,14.65
2018-08-30T22:46:20.136Z,14.60
2018-08-30T22:48:49.243Z,14.65
2018-08-30T22:51:18.603Z,14.40
2018-08-30T22:53:48.119Z,14.29
2018-08-30T22:56:17.305Z,14.22
2018-08-30T22:58:46.838Z,14.27
2018-08-30T23:01:17.924Z,14.24
2018-08-30T23:03:46.424Z,14.21
2018-08-30T23:06:15.129Z,14.20
2018-08-30T23:08:43.620Z,14.12
2018-08-30T23:11:12.087Z,14.10
2018-08-30T23:13:40.543Z,14.19
2018-08-30T23:16:09.048Z,14.14
2018-08-30T23:18:37.538Z,14.03
2018-08-30T23:21:07.007Z,14.03
2018-08-30T23:23:36.384Z,14.07
2018-08-30T23:26:04.978Z,13.97
2018-08-30T23:28:33.471Z,13.94
2018-08-30T23:31:01.947Z,13.90
2018-08-30T23:33:30.417Z,13.98
2018-08-30T23:35:58.864Z,13.98
2018-08-30T23:38:27.368Z,14.03
2018-08-30T23:40:56.060Z,14.05
2018-08-30T23:43:24.553Z,14.02
2018-08-30T23:45:54.659Z,14.02
2018-08-30T23:48:24.292Z,13.95
2018-08-30T23:50:53.186Z,13.80
2018-08-30T23:53:22.935Z,13.72
2018-08-30T23:55:52.409Z,13.71
2018-08-30T23:58:32.312Z,13.76
